createdAt,value
2022-10-07T00:01:13.119Z,80.43
2022-10-07T00:03:41.741Z,79.70
2022-10-07T00:06:12.964Z,79.82
2022-10-07T00:08:43.451Z,80.26
2022-10-07T00:11:14.374Z,79.32
2022-10-07T00:13:44.544Z,78.83
2022-10-07T00:16:16.633Z,79.66
2022-10-07T00:18:45.680Z,79.79
2022-10-07T00:21:15.589Z,79.24
2022-10-07T00:23:45.164Z,79.24
2022-10-07T00:26:17.084Z,79.12
2022-10-07T00:28:46.239Z,78.75
2022-10-07T00:31:17.262Z,79.20
2022-10-07T00:33:46.190Z,79.94
2022-10-07T00:36:19.815Z,79.43
2022-10-07T00:38:52.329Z,80.00
2022-10-07T00:41:22.864Z,79.90
2022-10-07T00:43:51.718Z,79.24
2022-10-07T00:46:29.086Z,78.91
2022-10-07T00:48:59.753Z,78.65
2022-10-07T00:51:29.552Z,78.66
2022-10-07T00:53:57.881Z,78.99
2022-10-07T00:56:28.721Z,79.18
2022-10-07T00:58:58.641Z,79.14
2022-10-07T01:01:26.916Z,78.77
2022-10-07T01:03:55.435Z,78.81
2022-10-07T01:06:23.863Z,78.77
2022-10-07T01:08:54.274Z,78.39
2022-10-07T01:11:34.882Z,77.85
2022-10-07T01:14:12.523Z,78.28
2022-10-07T01:16:49.062Z,79.44
2022-10-07T01:19:42.663Z,79.62
2022-10-07T01:22:23.216Z,79.39
2022-10-07T01:25:07.233Z,80.53
2022-10-07T01:27:37.629Z,79.55
2022-10-07T01:30:08.816Z,79.15
2022-10-07T01:32:41.357Z,79.08
2022-10-07T01:35:15.225Z,78.66
2022-10-07T01:37:48.373Z,78.26
2022-10-07T01:40:21.379Z,78.09
2022-10-07T01:42:51.308Z,77.82
2022-10-07T01:45:24.590Z,78.06
2022-10-07T01:47:52.844Z,78.03
2022-10-07T01:50:25.929Z,78.03
2022-10-07T01:53:12.347Z,78.17
2022-10-07T01:55:55.818Z,78.10
2022-10-07T01:58:36.647Z,78.30
2022-10-07T02:01:13.977Z,78.66
2022-10-07T02:04:06.908Z,78.79
2022-10-07T02:06:42.957Z,79.13
2022-10-07T02:09:23.705Z,79.33
2022-10-07T02:12:01.211Z,79.82
2022-10-07T02:14:38.052Z,80.19
2022-10-07T02:17:13.535Z,80.52
2022-10-07T02:19:48.184Z,80.95
2022-10-07T02:22:18.626Z,81.52
2022-10-07T02:24:49.368Z,81.20
2022-10-07T02:27:24.379Z,81.19
2022-10-07T02:29:59.341Z,81.83
2022-10-07T02:32:33.733Z,81.48
2022-10-07T02:35:04.974Z,81.09
2022-10-07T02:37:37.468Z,81.45
2022-10-07T02:40:12.268Z,81.38
2022-10-07T02:42:47.588Z,81.05
2022-10-07T02:45:26.466Z,80.96
2022-10-07T02:48:00.370Z,82.03
2022-10-07T02:50:36.954Z,81.96
2022-10-07T02:53:06.238Z,81.81
2022-10-07T02:55:36.025Z,81.57
2022-10-07T02:58:08.369Z,81.37
2022-10-07T03:00:42.953Z,81.24
2022-10-07T03:03:11.586Z,82.57
2022-10-07T03:06:01.068Z,83.52
2022-10-07T03:08:29.702Z,82.46
2022-10-07T03:10:58.325Z,82.52
2022-10-07T03:13:26.918Z,83.20
2022-10-07T03:15:59.303Z,83.05
2022-10-07T03:18:28.767Z,83.64
2022-10-07T03:21:22.465Z,83.16
2022-10-07T03:23:52.348Z,82.96
2022-10-07T03:26:21.395Z,83.51
2022-10-07T03:28:50.797Z,83.05
2022-10-07T03:31:20.579Z,82.37
2022-10-07T03:33:50.370Z,82.51
2022-10-07T03:36:19.169Z,82.35
2022-10-07T03:38:47.990Z,82.56
2022-10-07T03:41:16.541Z,82.37
2022-10-07T03:43:45.313Z,83.45
2022-10-07T03:46:16.715Z,84.18
2022-10-07T03:48:45.433Z,84.36
2022-10-07T03:51:14.114Z,84.76
2022-10-07T03:53:42.761Z,84.39
2022-10-07T03:56:11.177Z,83.67
2022-10-07T03:58:40.208Z,83.42
2022-10-07T04:01:12.799Z,82.59
2022-10-07T04:03:45.838Z,82.45
2022-10-07T04:06:14.621Z,82.88
2022-10-07T04:08:44.081Z,82.46
2022-10-07T04:11:13.354Z,82.79
2022-10-07T04:13:44.427Z,82.40
2022-10-07T04:16:13.837Z,82.31
2022-10-07T04:18:43.445Z,83.42
2022-10-07T04:21:12.671Z,82.95
2022-10-07T04:23:41.958Z,83.25
2022-10-07T04:26:11.730Z,83.26
2022-10-07T04:28:43.435Z,83.85
2022-10-07T04:31:13.960Z,83.72
2022-10-07T04:33:45.131Z,84.09
2022-10-07T04:36:15.108Z,85.06
2022-10-07T04:38:50.166Z,85.06
2022-10-07T04:41:19.161Z,85.17
2022-10-07T04:43:55.281Z,84.92
2022-10-07T04:46:27.604Z,85.03
2022-10-07T04:49:00.950Z,85.28
2022-10-07T04:51:30.565Z,85.43
2022-10-07T04:54:00.231Z,85.40
2022-10-07T04:56:32.652Z,86.35
2022-10-07T04:59:02.050Z,85.96
2022-10-07T05:01:31.217Z,86.76
2022-10-07T05:03:59.996Z,86.74
2022-10-07T05:06:32.886Z,85.84
2022-10-07T05:09:00.800Z,86.39
2022-10-07T05:11:29.893Z,86.18
2022-10-07T05:14:01.875Z,85.79
2022-10-07T05:16:31.418Z,85.31
2022-10-07T05:19:00.087Z,85.83
2022-10-07T05:21:30.069Z,85.46
2022-10-07T05:24:15.247Z,85.49
2022-10-07T05:26:44.433Z,85.84
2022-10-07T05:29:13.234Z,86.33
2022-10-07T05:31:50.177Z,86.47
2022-10-07T05:34:20.589Z,85.58
2022-10-07T05:36:49.105Z,85.44
2022-10-07T05:39:17.806Z,85.38
2022-10-07T05:41:51.997Z,85.41
2022-10-07T05:44:24.529Z,85.27
2022-10-07T05:46:53.062Z,85.53
2022-10-07T05:49:22.274Z,85.78
2022-10-07T05:51:51.099Z,85.74
2022-10-07T05:54:20.324Z,86.42
2022-10-07T05:56:48.728Z,87.28
2022-10-07T05:59:18.333Z,87.49
2022-10-07T06:01:47.602Z,87.34
2022-10-07T06:04:19.636Z,86.64
2022-10-07T06:06:49.289Z,86.47
2022-10-07T06:09:35.980Z,86.94
2022-10-07T06:12:28.048Z,86.28
2022-10-07T06:14:56.622Z,85.91
2022-10-07T06:17:24.942Z,85.64
2022-10-07T06:19:54.569Z,85.24
2022-10-07T06:22:23.638Z,85.40
2022-10-07T06:24:55.955Z,85.83
2022-10-07T06:27:24.593Z,86.02
2022-10-07T06:29:52.944Z,85.93
2022-10-07T06:32:21.528Z,85.88
2022-10-07T06:34:50.242Z,85.71
2022-10-07T06:37:19.993Z,85.17
2022-10-07T06:39:48.224Z,85.14
2022-10-07T06:42:17.180Z,85.10
2022-10-07T06:44:58.065Z,85.15
2022-10-07T06:47:27.379Z,84.61
2022-10-07T06:49:56.054Z,84.85
2022-10-07T06:52:25.211Z,84.30
2022-10-07T06:54:53.808Z,83.99
2022-10-07T06:57:56.033Z,83.66
2022-10-07T07:00:14.486Z,83.55
2022-10-07T07:02:43.737Z,83.05
2022-10-07T07:05:15.309Z,82.88
2022-10-07T07:07:44.358Z,82.95
2022-10-07T07:10:14.297Z,82.64
2022-10-07T07:12:45.527Z,82.29
2022-10-07T07:15:14.167Z,82.37
2022-10-07T07:17:43.054Z,81.96
2022-10-07T07:20:12.566Z,82.19
2022-10-07T07:22:42.688Z,81.87
2022-10-07T07:25:11.962Z,81.48
2022-10-07T07:27:40.465Z,81.34
2022-10-07T07:30:12.664Z,80.78
2022-10-07T07:32:41.024Z,80.58
2022-10-07T07:35:15.018Z,80.57
2022-10-07T07:37:43.778Z,80.26
2022-10-07T07:40:12.289Z,80.16
2022-10-07T07:42:40.557Z,80.56
2022-10-07T07:45:09.982Z,80.37
2022-10-07T07:47:38.765Z,79.67
2022-10-07T07:50:08.705Z,79.41
2022-10-07T07:52:37.036Z,79.58
2022-10-07T07:55:07.528Z,79.53
2022-10-07T07:57:37.394Z,79.34
2022-10-07T08:00:11.957Z,79.06
2022-10-07T08:02:46.932Z,78.57
2022-10-07T08:05:23.731Z,78.65
2022-10-07T08:07:53.086Z,78.62
2022-10-07T08:10:21.666Z,78.21
2022-10-07T08:12:50.020Z,77.46
2022-10-07T08:15:18.310Z,77.18
2022-10-07T08:17:47.956Z,77.19
2022-10-07T08:20:16.775Z,76.62
2022-10-07T08:22:45.992Z,76.37
2022-10-07T08:25:18.091Z,76.26
2022-10-07T08:27:46.820Z,75.94
2022-10-07T08:30:15.666Z,75.31
2022-10-07T08:32:45.785Z,74.98
2022-10-07T08:35:14.236Z,74.64
2022-10-07T08:37:42.727Z,74.83
2022-10-07T08:40:16.416Z,74.14
2022-10-07T08:42:50.165Z,73.47
2022-10-07T08:45:28.737Z,71.52
2022-10-07T08:47:58.089Z,71.03
2022-10-07T08:50:33.651Z,70.62
2022-10-07T08:53:06.202Z,69.31
2022-10-07T08:55:40.912Z,68.77
2022-10-07T08:58:35.488Z,68.29
2022-10-07T09:01:14.737Z,67.42
2022-10-07T09:03:53.639Z,67.06
2022-10-07T09:06:29.577Z,66.85
2022-10-07T09:09:02.308Z,66.67
2022-10-07T09:11:35.127Z,66.45
2022-10-07T09:14:15.761Z,65.88
2022-10-07T09:16:46.095Z,64.62
2022-10-07T09:19:22.748Z,64.71
2022-10-07T09:21:51.483Z,64.56
2022-10-07T09:24:23.734Z,64.22
2022-10-07T09:26:55.036Z,63.58
2022-10-07T09:29:25.735Z,63.10
2022-10-07T09:31:55.179Z,62.70
2022-10-07T09:34:26.676Z,62.10
2022-10-07T09:37:14.097Z,61.88
2022-10-07T09:39:44.405Z,61.25
2022-10-07T09:42:35.251Z,60.50
2022-10-07T09:45:18.438Z,60.14
2022-10-07T09:47:52.234Z,60.14
2022-10-07T09:50:37.789Z,58.98
2022-10-07T09:53:16.386Z,58.69
2022-10-07T09:55:44.741Z,58.11
2022-10-07T09:58:20.266Z,57.19
2022-10-07T10:00:50.804Z,57.21
2022-10-07T10:03:20.182Z,57.06
2022-10-07T10:05:56.671Z,57.14
2022-10-07T10:08:28.083Z,56.97
2022-10-07T10:10:57.924Z,56.76
2022-10-07T10:13:30.268Z,56.55
2022-10-07T10:15:59.137Z,55.79
2022-10-07T10:18:36.270Z,55.72
2022-10-07T10:21:21.156Z,55.49
2022-10-07T10:23:52.233Z,54.99
2022-10-07T10:26:45.494Z,54.61
2022-10-07T10:29:38.226Z,54.33
2022-10-07T10:32:36.410Z,53.40
2022-10-07T10:35:50.585Z,52.91
2022-10-07T10:38:38.278Z,52.27
2022-10-07T10:41:25.675Z,51.16
2022-10-07T10:44:28.363Z,50.33
2022-10-07T10:47:05.021Z,50.61
2022-10-07T10:49:46.240Z,50.51
2022-10-07T10:52:34.540Z,49.48
2022-10-07T10:55:33.272Z,49.38
2022-10-07T10:58:18.181Z,48.41
2022-10-07T11:01:01.047Z,48.14
2022-10-07T11:03:39.109Z,48.66
2022-10-07T11:06:17.036Z,48.61
2022-10-07T11:08:52.693Z,48.44
2022-10-07T11:11:25.788Z,47.59
2022-10-07T11:14:01.964Z,47.64
2022-10-07T11:16:40.227Z,47.10
2022-10-07T11:19:20.093Z,47.07
2022-10-07T11:21:53.383Z,47.21
2022-10-07T11:24:29.541Z,47.25
2022-10-07T11:27:06.313Z,45.93
2022-10-07T11:29:44.467Z,46.29
2022-10-07T11:32:21.530Z,46.84
2022-10-07T11:34:58.286Z,46.94
2022-10-07T11:37:38.356Z,46.71
2022-10-07T11:40:11.626Z,46.98
2022-10-07T11:42:49.937Z,46.61
2022-10-07T11:45:27.315Z,46.39
2022-10-07T11:48:04.501Z,46.56
2022-10-07T11:50:42.182Z,46.58
2022-10-07T11:53:23.913Z,46.85
2022-10-07T11:56:01.945Z,47.23
2022-10-07T11:58:37.225Z,46.67
2022-10-07T12:01:45.481Z,46.43
2022-10-07T12:04:38.246Z,46.86
2022-10-07T12:07:42.120Z,47.43
2022-10-07T12:10:27.205Z,46.84
2022-10-07T12:13:01.811Z,46.38
2022-10-07T12:15:36.631Z,45.59
2022-10-07T12:18:30.982Z,45.73
2022-10-07T12:21:09.058Z,45.51
2022-10-07T12:23:48.801Z,45.69
2022-10-07T12:26:51.384Z,45.89
2022-10-07T12:29:30.411Z,45.80
2022-10-07T12:32:02.848Z,45.25
2022-10-07T12:34:43.436Z,45.32
2022-10-07T12:37:53.050Z,45.55
2022-10-07T12:40:31.005Z,45.94
2022-10-07T12:43:10.476Z,46.21
2022-10-07T12:45:44.206Z,45.84
2022-10-07T12:48:21.471Z,45.60
2022-10-07T12:50:57.347Z,45.25
2022-10-07T12:53:34.166Z,44.43
2022-10-07T12:56:09.140Z,44.67
2022-10-07T12:59:20.477Z,45.09
2022-10-07T13:02:31.995Z,44.72
2022-10-07T13:05:51.599Z,43.25
2022-10-07T13:08:50.788Z,43.84
2022-10-07T13:12:02.028Z,44.10
2022-10-07T13:14:42.411Z,44.06
2022-10-07T13:17:26.437Z,43.50
2022-10-07T13:20:07.310Z,44.00
2022-10-07T13:22:40.190Z,44.04
2022-10-07T13:25:15.402Z,44.51
2022-10-07T13:27:53.816Z,45.21
2022-10-07T13:30:40.437Z,44.26
2022-10-07T13:33:24.806Z,44.14
2022-10-07T13:36:09.633Z,43.16
2022-10-07T13:38:41.358Z,41.59
2022-10-07T13:41:27.276Z,41.35
2022-10-07T13:44:03.919Z,41.73
2022-10-07T13:46:37.342Z,41.48
2022-10-07T13:49:19.473Z,42.34
2022-10-07T13:51:56.059Z,43.06
2022-10-07T13:54:31.199Z,43.91
2022-10-07T13:57:07.759Z,42.55
2022-10-07T13:59:42.253Z,42.27
2022-10-07T14:02:18.057Z,42.43
2022-10-07T14:05:02.057Z,42.85
2022-10-07T14:07:33.789Z,43.44
2022-10-07T14:10:09.910Z,43.26
2022-10-07T14:12:45.369Z,42.94
2022-10-07T14:15:20.246Z,43.64
2022-10-07T14:17:55.147Z,44.13
2022-10-07T14:20:30.812Z,43.77
2022-10-07T14:23:05.840Z,43.84
2022-10-07T14:25:55.157Z,44.22
2022-10-07T14:28:35.241Z,44.74
2022-10-07T14:31:38.430Z,44.85
2022-10-07T14:34:36.961Z,44.93
2022-10-07T14:37:11.133Z,45.04
2022-10-07T14:39:47.891Z,44.85
2022-10-07T14:42:23.845Z,44.48
2022-10-07T14:44:56.906Z,44.78
2022-10-07T14:47:31.345Z,45.40
2022-10-07T14:50:02.916Z,45.51
2022-10-07T14:52:44.562Z,45.89
2022-10-07T14:55:22.174Z,46.30
2022-10-07T14:57:54.030Z,46.74
2022-10-07T15:00:29.303Z,47.38
2022-10-07T15:03:02.768Z,47.70
2022-10-07T15:05:34.445Z,47.85
2022-10-07T15:08:06.332Z,48.40
2022-10-07T15:10:41.130Z,49.13
2022-10-07T15:13:13.479Z,49.15
2022-10-07T15:15:47.239Z,49.05
2022-10-07T15:18:19.183Z,49.35
2022-10-07T15:20:57.845Z,49.49
2022-10-07T15:23:30.155Z,50.01
2022-10-07T15:26:02.530Z,50.41
2022-10-07T15:28:35.009Z,50.56
2022-10-07T15:31:06.542Z,50.71
2022-10-07T15:33:41.198Z,51.26
2022-10-07T15:36:13.188Z,51.65
2022-10-07T15:38:45.551Z,52.03
2022-10-07T15:41:32.063Z,52.42
2022-10-07T15:44:05.775Z,53.21
2022-10-07T15:46:37.643Z,53.35
2022-10-07T15:49:09.777Z,53.69
2022-10-07T15:51:41.579Z,53.75
2022-10-07T15:54:13.512Z,53.81
2022-10-07T15:56:50.074Z,54.19
2022-10-07T15:59:22.650Z,54.38
2022-10-07T16:01:55.106Z,54.71
2022-10-07T16:04:27.352Z,54.91
2022-10-07T16:06:59.655Z,55.11
2022-10-07T16:09:31.430Z,55.64
2022-10-07T16:12:03.104Z,55.73
2022-10-07T16:14:35.233Z,55.82
2022-10-07T16:17:07.647Z,56.26
2022-10-07T16:19:39.417Z,56.29
2022-10-07T16:22:11.229Z,56.82
2022-10-07T16:24:42.896Z,56.94
2022-10-07T16:27:14.812Z,57.53
2022-10-07T16:30:03.843Z,57.72
2022-10-07T16:32:35.735Z,58.37
2022-10-07T16:35:09.515Z,58.86
2022-10-07T16:37:41.428Z,58.70
2022-10-07T16:40:13.458Z,58.96
2022-10-07T16:42:45.866Z,59.06
2022-10-07T16:45:17.753Z,59.49
2022-10-07T16:47:49.387Z,60.12
2022-10-07T16:50:21.703Z,61.18
2022-10-07T16:52:53.281Z,61.68
2022-10-07T16:55:24.959Z,61.77
2022-10-07T16:57:57.356Z,62.51
2022-10-07T17:00:29.046Z,62.06
2022-10-07T17:03:01.282Z,62.56
2022-10-07T17:05:32.925Z,62.75
2022-10-07T17:08:05.476Z,63.04
2022-10-07T17:10:37.946Z,63.92
2022-10-07T17:13:09.540Z,64.59
2022-10-07T17:15:43.152Z,64.30
2022-10-07T17:18:17.357Z,63.84
2022-10-07T17:20:53.167Z,63.54
2022-10-07T17:23:27.120Z,62.95
2022-10-07T17:25:58.959Z,63.36
2022-10-07T17:28:30.887Z,63.65
2022-10-07T17:31:08.562Z,63.26
2022-10-07T17:33:42.346Z,63.54
2022-10-07T17:36:14.744Z,63.56
2022-10-07T17:38:47.311Z,63.41
2022-10-07T17:41:21.118Z,63.56
2022-10-07T17:43:55.862Z,63.57
2022-10-07T17:46:29.544Z,63.57
2022-10-07T17:49:02.629Z,64.55
2022-10-07T17:51:37.197Z,64.34
2022-10-07T17:54:12.247Z,64.05
2022-10-07T17:56:45.733Z,64.20
2022-10-07T17:59:17.779Z,64.32
2022-10-07T18:01:49.482Z,64.22
2022-10-07T18:04:24.707Z,64.32
2022-10-07T18:06:58.159Z,64.38
2022-10-07T18:09:29.921Z,64.68
2022-10-07T18:12:19.673Z,64.67
2022-10-07T18:15:09.115Z,65.20
2022-10-07T18:17:40.977Z,66.02
2022-10-07T18:20:15.332Z,66.65
2022-10-07T18:22:47.331Z,66.60
2022-10-07T18:25:19.398Z,66.29
2022-10-07T18:27:52.845Z,66.25
2022-10-07T18:30:24.611Z,66.11
2022-10-07T18:32:56.569Z,66.33
2022-10-07T18:35:28.245Z,66.85
2022-10-07T18:37:59.860Z,66.73
2022-10-07T18:40:31.506Z,67.09
2022-10-07T18:43:03.285Z,67.52
2022-10-07T18:45:35.059Z,67.69
2022-10-07T18:48:06.876Z,67.84
2022-10-07T18:50:38.558Z,67.76
2022-10-07T18:53:10.322Z,67.94
2022-10-07T18:55:42.582Z,68.28
2022-10-07T18:58:14.373Z,68.42
2022-10-07T19:00:47.435Z,68.25
2022-10-07T19:03:19.201Z,68.97
2022-10-07T19:05:50.849Z,69.80
2022-10-07T19:08:22.506Z,70.24
2022-10-07T19:10:54.273Z,70.77
2022-10-07T19:13:44.076Z,71.09
2022-10-07T19:16:17.191Z,71.17
2022-10-07T19:18:50.056Z,71.45
2022-10-07T19:21:23.805Z,72.18
2022-10-07T19:23:58.774Z,72.35
2022-10-07T19:26:33.936Z,71.94
2022-10-07T19:29:09.117Z,72.06
2022-10-07T19:31:42.217Z,72.42
2022-10-07T19:34:17.209Z,72.92
2022-10-07T19:36:50.278Z,72.84
2022-10-07T19:39:23.613Z,72.97
2022-10-07T19:41:58.733Z,73.08
2022-10-07T19:44:31.650Z,73.02
2022-10-07T19:47:04.076Z,73.80
2022-10-07T19:49:38.598Z,74.38
2022-10-07T19:52:10.983Z,74.34
2022-10-07T19:54:45.891Z,74.55
2022-10-07T19:57:17.637Z,75.17
2022-10-07T19:59:49.444Z,75.64
2022-10-07T20:02:21.178Z,76.04
2022-10-07T20:04:53.958Z,76.01
2022-10-07T20:07:25.915Z,76.11
2022-10-07T20:09:57.590Z,76.45
2022-10-07T20:12:29.826Z,76.34
2022-10-07T20:15:01.661Z,76.28
2022-10-07T20:17:33.765Z,76.67
2022-10-07T20:20:06.264Z,76.81
2022-10-07T20:22:38.617Z,77.02
2022-10-07T20:25:12.318Z,77.62
2022-10-07T20:27:44.492Z,77.64
2022-10-07T20:30:18.369Z,78.13
2022-10-07T20:32:50.388Z,78.27
2022-10-07T20:35:23.527Z,78.00
2022-10-07T20:37:55.201Z,78.54
2022-10-07T20:40:44.357Z,78.89
2022-10-07T20:43:16.071Z,79.66
2022-10-07T20:45:59.945Z,79.71
2022-10-07T20:48:33.697Z,79.86
2022-10-07T20:51:09.888Z,80.15
2022-10-07T20:53:41.584Z,80.80
2022-10-07T20:56:13.523Z,80.72
2022-10-07T20:58:46.171Z,80.32
2022-10-07T21:01:17.898Z,80.73
2022-10-07T21:03:49.698Z,81.27
2022-10-07T21:06:21.558Z,81.23
2022-10-07T21:08:57.821Z,81.53
2022-10-07T21:11:29.699Z,81.83
2022-10-07T21:14:01.486Z,81.75
2022-10-07T21:16:35.161Z,82.13
2022-10-07T21:19:07.326Z,82.07
2022-10-07T21:21:39.116Z,82.44
2022-10-07T21:24:11.116Z,82.40
2022-10-07T21:26:42.878Z,82.78
2022-10-07T21:29:14.749Z,82.97
2022-10-07T21:31:46.928Z,82.44
2022-10-07T21:34:18.756Z,82.22
2022-10-07T21:36:54.055Z,82.68
2022-10-07T21:39:26.554Z,83.75
2022-10-07T21:41:59.116Z,83.14
2022-10-07T21:44:33.353Z,82.45
2022-10-07T21:47:05.310Z,82.53
2022-10-07T21:49:37.299Z,82.79
2022-10-07T21:52:09.233Z,82.95
2022-10-07T21:54:41.241Z,82.82
2022-10-07T21:57:13.275Z,82.74
2022-10-07T21:59:45.379Z,82.65
2022-10-07T22:02:18.036Z,83.13
2022-10-07T22:04:49.814Z,83.78
2022-10-07T22:07:39.035Z,84.23
2022-10-07T22:10:12.250Z,83.84
2022-10-07T22:12:45.916Z,83.99
2022-10-07T22:15:18.054Z,83.44
2022-10-07T22:17:50.697Z,83.88
2022-10-07T22:20:22.345Z,83.70
2022-10-07T22:22:59.124Z,84.02
2022-10-07T22:25:32.352Z,84.22
2022-10-07T22:28:04.421Z,84.78
2022-10-07T22:30:39.179Z,86.40
2022-10-07T22:33:15.309Z,85.67
2022-10-07T22:35:47.618Z,85.43
2022-10-07T22:38:19.487Z,85.22
2022-10-07T22:40:51.348Z,84.32
2022-10-07T22:43:22.980Z,83.77
2022-10-07T22:45:59.158Z,83.99
2022-10-07T22:48:31.423Z,83.51
2022-10-07T22:51:08.297Z,83.30
2022-10-07T22:53:42.985Z,83.36
2022-10-07T22:56:17.454Z,83.74
2022-10-07T22:58:53.871Z,84.29
2022-10-07T23:01:28.608Z,84.96
2022-10-07T23:04:03.309Z,86.01
2022-10-07T23:06:36.778Z,86.25
2022-10-07T23:09:08.660Z,85.56
2022-10-07T23:11:40.326Z,85.28
2022-10-07T23:14:12.518Z,85.29
2022-10-07T23:16:44.886Z,85.36
2022-10-07T23:19:16.654Z,85.56
2022-10-07T23:21:48.621Z,86.30
2022-10-07T23:24:20.278Z,86.75
2022-10-07T23:26:51.928Z,86.66
2022-10-07T23:29:24.125Z,87.45
2022-10-07T23:31:55.875Z,86.93
2022-10-07T23:34:27.902Z,86.26
2022-10-07T23:36:58.732Z,86.19
2022-10-07T23:39:30.341Z,86.43
2022-10-07T23:42:02.972Z,85.93
2022-10-07T23:44:35.014Z,85.86
2022-10-07T23:47:06.865Z,85.66
2022-10-07T23:49:38.550Z,86.68
2022-10-07T23:52:10.320Z,87.08
2022-10-07T23:54:42.023Z,86.50
2022-10-07T23:57:13.734Z,86.22
2022-10-07T23:59:45.507Z,85.47
